createdAt,value
2022-12-24T00:01:51.712Z,4.25
2022-12-24T00:04:19.879Z,5.00
2022-12-24T00:06:47.892Z,3.30
2022-12-24T00:09:18.605Z,3.25
2022-12-24T00:12:06.456Z,2.80
2022-12-24T00:14:47.822Z,2.95
2022-12-24T00:17:26.103Z,5.47
2022-12-24T00:20:13.806Z,3.42
2022-12-24T00:23:03.812Z,3.22
2022-12-24T00:25:51.551Z,2.15
2022-12-24T00:28:39.165Z,3.03
2022-12-24T00:31:29.579Z,3.40
2022-12-24T00:34:09.319Z,3.45
2022-12-24T00:36:49.177Z,3.25
2022-12-24T00:39:36.821Z,3.13
2022-12-24T00:42:09.709Z,2.92
2022-12-24T00:44:59.607Z,3.70
2022-12-24T00:47:49.557Z,2.45
2022-12-24T00:50:18.232Z,3.03
2022-12-24T00:52:51.487Z,3.17
2022-12-24T00:55:22.815Z,2.70
2022-12-24T00:57:53.294Z,2.88
2022-12-24T01:00:42.911Z,3.22
2022-12-24T01:03:36.305Z,3.40
2022-12-24T01:06:07.720Z,3.45
2022-12-24T01:08:52.308Z,5.68
2022-12-24T01:11:25.706Z,3.50
2022-12-24T01:14:13.439Z,4.50
2022-12-24T01:17:00.999Z,4.60
2022-12-24T01:19:48.753Z,3.88
2022-12-24T01:22:28.866Z,5.60
2022-12-24T01:25:19.124Z,3.40
2022-12-24T01:28:08.957Z,5.82
2022-12-24T01:30:56.692Z,3.88
2022-12-24T01:33:33.718Z,4.00
2022-12-24T01:36:04.790Z,5.10
2022-12-24T01:38:34.571Z,3.60
2022-12-24T01:41:22.978Z,4.13
2022-12-24T01:43:51.629Z,3.28
2022-12-24T01:46:27.319Z,3.85
2022-12-24T01:51:34.119Z,5.72
2022-12-24T01:54:05.193Z,4.30
2022-12-24T01:56:34.722Z,4.00
2022-12-24T01:59:05.604Z,3.97
2022-12-24T02:01:34.904Z,3.22
2022-12-24T02:04:12.080Z,3.92
2022-12-24T02:07:01.353Z,3.45
2022-12-24T02:09:49.873Z,3.30
2022-12-24T02:12:36.491Z,3.55
2022-12-24T02:15:05.928Z,2.83
2022-12-24T02:17:59.702Z,3.42
2022-12-24T02:20:57.057Z,4.07
2022-12-24T02:24:04.978Z,4.40
2022-12-24T02:26:35.201Z,4.85
2022-12-24T02:29:23.331Z,3.35
2022-12-24T02:31:56.973Z,4.43
2022-12-24T02:34:33.828Z,3.30
2022-12-24T02:37:05.060Z,4.18
2022-12-24T02:39:45.943Z,4.15
2022-12-24T02:42:19.826Z,3.25
2022-12-24T02:44:55.665Z,3.72
2022-12-24T02:47:25.262Z,3.55
2022-12-24T02:49:55.808Z,3.40
2022-12-24T02:52:33.707Z,7.38
2022-12-24T02:55:08.144Z,4.00
2022-12-24T02:57:43.820Z,4.03
2022-12-24T03:00:14.826Z,3.88
2022-12-24T03:02:54.408Z,4.72
2022-12-24T03:05:41.833Z,3.80
2022-12-24T03:08:21.212Z,3.70
2022-12-24T03:10:56.064Z,2.95
2022-12-24T03:13:27.503Z,3.40
2022-12-24T03:15:56.323Z,4.32
2022-12-24T03:18:38.790Z,3.45
2022-12-24T03:21:27.035Z,4.32
2022-12-24T03:24:16.843Z,4.50
2022-12-24T03:27:06.317Z,2.97
2022-12-24T03:29:35.764Z,3.78
2022-12-24T03:32:28.924Z,4.80
2022-12-24T03:35:16.633Z,3.33
2022-12-24T03:37:49.668Z,4.53
2022-12-24T03:40:37.384Z,3.97
2022-12-24T03:43:25.103Z,3.22
2022-12-24T03:46:15.237Z,3.88
2022-12-24T03:49:02.867Z,3.17
2022-12-24T03:51:44.922Z,3.53
2022-12-24T03:54:22.834Z,3.65
2022-12-24T03:57:07.915Z,3.40
2022-12-24T03:59:51.867Z,3.25
2022-12-24T04:02:23.155Z,5.30
2022-12-24T04:04:53.720Z,2.53
2022-12-24T04:07:22.282Z,2.88
2022-12-24T04:09:50.583Z,4.43
2022-12-24T04:12:18.827Z,2.90
2022-12-24T04:14:47.762Z,3.60
2022-12-24T04:17:16.384Z,3.35
2022-12-24T04:19:46.309Z,2.10
2022-12-24T04:22:14.734Z,2.65
2022-12-24T04:24:44.152Z,2.72
2022-12-24T04:27:15.379Z,2.33
2022-12-24T04:29:44.670Z,2.63
2022-12-24T04:32:16.696Z,2.88
2022-12-24T04:34:52.479Z,2.13
2022-12-24T04:37:30.137Z,2.45
2022-12-24T04:40:17.909Z,1.92
2022-12-24T04:43:07.934Z,2.78
2022-12-24T04:45:52.114Z,2.13
2022-12-24T04:48:21.428Z,2.70
2022-12-24T04:50:50.021Z,2.97
2022-12-24T04:53:21.984Z,3.10
2022-12-24T04:55:51.194Z,2.25
2022-12-24T04:58:21.920Z,2.20
2022-12-24T05:00:51.860Z,2.40
2022-12-24T05:03:29.015Z,2.33
2022-12-24T05:06:06.251Z,2.38
2022-12-24T05:11:29.926Z,2.15
2022-12-24T05:14:02.086Z,2.13
2022-12-24T05:16:44.274Z,2.65
2022-12-24T05:19:13.709Z,1.98
2022-12-24T05:21:41.993Z,3.28
2022-12-24T05:24:30.758Z,2.85
2022-12-24T05:26:59.530Z,2.60
2022-12-24T05:32:06.399Z,2.45
2022-12-24T05:34:43.991Z,2.58
2022-12-24T05:37:25.235Z,2.80
2022-12-24T05:39:53.684Z,2.60
2022-12-24T05:42:31.717Z,2.78
2022-12-24T05:45:19.334Z,3.13
2022-12-24T05:47:58.601Z,3.35
2022-12-24T05:50:41.947Z,3.05
2022-12-24T05:53:18.701Z,4.38
2022-12-24T05:56:03.995Z,3.78
2022-12-24T05:58:38.163Z,4.55
2022-12-24T06:01:08.443Z,2.92
2022-12-24T06:03:49.721Z,2.88
2022-12-24T06:06:21.114Z,2.88
2022-12-24T06:08:52.784Z,2.90
2022-12-24T06:11:26.282Z,2.40
2022-12-24T06:13:55.323Z,3.93
2022-12-24T06:16:29.852Z,3.40
2022-12-24T06:18:58.398Z,3.10
2022-12-24T06:21:29.523Z,3.35
2022-12-24T06:23:58.822Z,4.63
2022-12-24T06:26:29.553Z,3.55
2022-12-24T06:29:00.445Z,2.97
2022-12-24T06:31:40.241Z,3.13
2022-12-24T06:34:25.084Z,3.08
2022-12-24T06:36:59.529Z,2.47
2022-12-24T06:39:41.010Z,3.28
2022-12-24T06:42:15.660Z,4.97
2022-12-24T06:45:08.519Z,3.53
2022-12-24T06:47:52.539Z,3.10
2022-12-24T06:50:32.623Z,3.30
2022-12-24T06:53:00.975Z,2.90
2022-12-24T06:55:40.674Z,4.57
2022-12-24T06:58:23.012Z,4.07
2022-12-24T07:01:12.293Z,3.20
2022-12-24T07:03:47.524Z,3.60
2022-12-24T07:06:30.048Z,5.07
2022-12-24T07:09:07.008Z,5.95
2022-12-24T07:11:43.800Z,4.03
2022-12-24T07:14:19.620Z,4.05
2022-12-24T07:17:03.487Z,3.25
2022-12-24T07:19:48.191Z,4.25
2022-12-24T07:22:35.807Z,4.57
2022-12-24T07:25:23.438Z,4.97
2022-12-24T07:28:04.944Z,3.88
2022-12-24T07:30:35.212Z,4.15
2022-12-24T07:33:22.902Z,4.47
2022-12-24T07:36:02.988Z,3.38
2022-12-24T07:38:34.791Z,4.13
2022-12-24T07:41:03.735Z,4.45
2022-12-24T07:43:33.759Z,4.47
2022-12-24T07:46:04.721Z,3.20
2022-12-24T07:48:36.235Z,3.75
2022-12-24T07:51:07.652Z,4.35
2022-12-24T07:53:37.498Z,5.28
2022-12-24T07:56:20.627Z,4.55
2022-12-24T07:59:02.412Z,5.70
2022-12-24T08:01:35.996Z,3.42
2022-12-24T08:04:19.541Z,4.05
2022-12-24T08:06:49.275Z,3.78
2022-12-24T08:09:20.140Z,4.85
2022-12-24T08:11:53.366Z,4.07
2022-12-24T08:14:21.768Z,5.82
2022-12-24T08:17:04.639Z,3.55
2022-12-24T08:19:50.666Z,4.63
2022-12-24T08:22:27.953Z,4.40
2022-12-24T08:25:15.609Z,5.32
2022-12-24T08:28:03.482Z,4.10
2022-12-24T08:30:35.154Z,3.83
2022-12-24T08:33:17.338Z,4.53
2022-12-24T08:35:54.954Z,5.03
2022-12-24T08:38:23.663Z,3.78
2022-12-24T08:40:54.063Z,5.25
2022-12-24T08:43:22.371Z,5.05
2022-12-24T08:45:54.212Z,3.88
2022-12-24T08:48:23.147Z,4.07
2022-12-24T08:50:53.970Z,4.50
2022-12-24T08:53:22.661Z,4.20
2022-12-24T08:55:56.186Z,4.22
2022-12-24T08:58:28.097Z,3.70
2022-12-24T09:00:57.221Z,3.80
2022-12-24T09:03:36.114Z,4.60
2022-12-24T09:06:07.835Z,3.97
2022-12-24T09:08:36.855Z,4.03
2022-12-24T09:11:10.130Z,4.72
2022-12-24T09:13:38.932Z,5.07
2022-12-24T09:16:10.251Z,4.65
2022-12-24T09:18:39.553Z,4.30
2022-12-24T09:21:15.392Z,5.00
2022-12-24T09:23:45.683Z,4.93
2022-12-24T09:26:18.483Z,3.63
2022-12-24T09:28:47.127Z,4.18
2022-12-24T09:31:18.753Z,4.47
2022-12-24T09:33:48.542Z,5.72
2022-12-24T09:36:20.371Z,4.43
2022-12-24T09:38:49.193Z,5.57
2022-12-24T09:41:23.610Z,5.03
2022-12-24T09:44:13.093Z,3.90
2022-12-24T09:46:50.374Z,5.88
2022-12-24T09:49:30.964Z,4.30
2022-12-24T09:52:03.892Z,5.45
2022-12-24T09:54:49.276Z,8.85
2022-12-24T09:57:24.241Z,3.95
2022-12-24T10:00:00.299Z,6.00
2022-12-24T10:02:48.155Z,4.00
2022-12-24T10:05:19.106Z,4.43
2022-12-24T10:07:48.266Z,5.00
2022-12-24T10:10:17.274Z,4.05
2022-12-24T10:12:52.337Z,3.90
2022-12-24T10:15:26.509Z,4.57
2022-12-24T10:18:16.072Z,4.32
2022-12-24T10:20:55.012Z,3.70
2022-12-24T10:23:49.491Z,4.07
2022-12-24T10:28:49.013Z,3.72
2022-12-24T10:31:19.125Z,4.95
2022-12-24T10:33:57.011Z,3.63
2022-12-24T10:36:29.420Z,5.25
2022-12-24T10:39:06.171Z,4.20
2022-12-24T10:41:45.197Z,10.30
2022-12-24T10:44:23.277Z,4.05
2022-12-24T10:46:51.606Z,4.43
2022-12-24T10:49:38.853Z,8.75
2022-12-24T10:52:11.887Z,4.35
2022-12-24T10:55:00.838Z,5.43
2022-12-24T10:57:33.393Z,3.88
2022-12-24T11:00:03.923Z,4.57
2022-12-24T11:03:07.852Z,3.38
2022-12-24T11:06:04.391Z,4.22
2022-12-24T11:08:34.972Z,3.83
2022-12-24T11:11:08.244Z,4.22
2022-12-24T11:13:40.182Z,3.72
2022-12-24T11:16:29.746Z,5.05
2022-12-24T11:18:59.543Z,5.43
2022-12-24T11:21:48.232Z,6.22
2022-12-24T11:24:22.135Z,5.00
2022-12-24T11:26:52.911Z,4.72
2022-12-24T11:29:29.461Z,7.20
2022-12-24T11:32:19.936Z,4.18
2022-12-24T11:34:51.782Z,3.83
2022-12-24T11:37:22.167Z,17.50
2022-12-24T11:39:54.928Z,6.10
2022-12-24T11:42:26.921Z,5.50
2022-12-24T11:44:58.631Z,3.92
2022-12-24T11:47:37.742Z,3.63
2022-12-24T11:50:21.207Z,4.70
2022-12-24T11:53:03.594Z,3.70
2022-12-24T11:55:45.296Z,3.42
2022-12-24T11:58:24.321Z,5.78
2022-12-24T12:01:00.333Z,3.22
2022-12-24T12:03:32.041Z,3.97
2022-12-24T12:06:02.430Z,5.25
2022-12-24T12:08:32.592Z,3.17
2022-12-24T12:11:02.948Z,3.63
2022-12-24T12:13:34.077Z,4.18
2022-12-24T12:16:24.435Z,4.22
2022-12-24T12:19:03.791Z,4.03
2022-12-24T12:21:46.377Z,4.10
2022-12-24T12:24:17.975Z,4.00
2022-12-24T12:26:47.704Z,4.75
2022-12-24T12:29:18.097Z,4.63
2022-12-24T12:31:49.426Z,4.28
2022-12-24T12:34:21.212Z,3.97
2022-12-24T12:37:14.931Z,7.70
2022-12-24T12:39:43.732Z,2.78
2022-12-24T12:42:33.852Z,4.82
2022-12-24T12:45:17.338Z,3.55
2022-12-24T12:47:51.749Z,5.47
2022-12-24T12:50:45.200Z,4.20
2022-12-24T12:53:15.525Z,4.93
2022-12-24T12:56:02.545Z,3.40
2022-12-24T12:58:43.779Z,4.78
2022-12-24T13:01:21.442Z,4.32
2022-12-24T13:03:57.784Z,3.35
2022-12-24T13:06:28.002Z,3.55
2022-12-24T13:09:11.266Z,5.53
2022-12-24T13:11:39.090Z,5.57
2022-12-24T13:14:19.361Z,3.95
2022-12-24T13:16:56.328Z,3.88
2022-12-24T13:19:38.671Z,4.07
2022-12-24T13:22:06.912Z,3.97
2022-12-24T13:24:36.072Z,3.15
2022-12-24T13:27:41.648Z,3.30
2022-12-24T13:30:32.685Z,3.03
2022-12-24T13:33:38.521Z,4.97
2022-12-24T13:36:10.872Z,3.42
2022-12-24T13:38:48.430Z,3.53
2022-12-24T13:41:40.615Z,3.97
2022-12-24T13:44:13.629Z,5.05
2022-12-24T13:46:56.599Z,3.95
2022-12-24T13:49:32.993Z,5.97
2022-12-24T13:52:10.004Z,3.50
2022-12-24T13:54:40.835Z,4.18
2022-12-24T13:57:41.597Z,3.50
2022-12-24T14:00:22.010Z,4.15
2022-12-24T14:03:06.628Z,4.68
2022-12-24T14:05:40.039Z,4.55
2022-12-24T14:08:23.644Z,4.50
2022-12-24T14:11:06.820Z,3.20
2022-12-24T14:13:40.851Z,2.73
2022-12-24T14:16:27.582Z,2.42
2022-12-24T14:19:00.309Z,3.40
2022-12-24T14:21:36.013Z,3.67
2022-12-24T14:24:06.122Z,3.65
2022-12-24T14:26:44.735Z,3.00
2022-12-24T14:29:25.089Z,3.60
2022-12-24T14:31:56.012Z,2.95
2022-12-24T14:34:34.817Z,3.45
2022-12-24T14:37:04.580Z,2.80
2022-12-24T14:39:33.264Z,3.47
2022-12-24T14:42:20.372Z,4.18
2022-12-24T14:45:07.992Z,3.30
2022-12-24T14:47:44.255Z,4.68
2022-12-24T14:50:12.656Z,3.90
2022-12-24T14:53:04.577Z,3.50
2022-12-24T14:55:41.842Z,3.13
2022-12-24T14:58:20.782Z,3.83
2022-12-24T15:00:49.667Z,15.82
2022-12-24T15:03:19.660Z,4.57
2022-12-24T15:05:51.787Z,4.03
2022-12-24T15:08:31.008Z,3.50
2022-12-24T15:11:05.255Z,9.45
2022-12-24T15:13:42.807Z,5.03
2022-12-24T15:16:16.522Z,2.92
2022-12-24T15:19:05.240Z,3.55
2022-12-24T15:21:41.454Z,3.55
2022-12-24T15:24:29.337Z,3.40
2022-12-24T15:26:57.783Z,7.32
2022-12-24T15:29:30.715Z,6.63
2022-12-24T15:32:00.611Z,6.68
2022-12-24T15:34:42.463Z,6.65
2022-12-24T15:37:19.824Z,5.28
2022-12-24T15:40:06.840Z,5.45
2022-12-24T15:42:51.250Z,3.90
2022-12-24T15:45:27.593Z,6.00
2022-12-24T15:48:00.227Z,6.93
2022-12-24T15:50:31.478Z,6.63
2022-12-24T15:53:20.252Z,5.25
2022-12-24T15:56:05.627Z,8.30
2022-12-24T15:58:36.210Z,5.00
2022-12-24T16:01:04.776Z,5.63
2022-12-24T16:03:33.681Z,5.25
2022-12-24T16:06:08.514Z,4.60
2022-12-24T16:08:46.144Z,4.88
2022-12-24T16:11:20.451Z,4.53
2022-12-24T16:13:51.736Z,5.25
2022-12-24T16:16:23.199Z,12.25
2022-12-24T16:18:52.475Z,5.93
2022-12-24T16:21:37.144Z,4.28
2022-12-24T16:24:17.043Z,4.13
2022-12-24T16:26:48.144Z,4.72
2022-12-24T16:29:24.047Z,5.25
2022-12-24T16:32:02.822Z,5.93
2022-12-24T16:34:42.082Z,4.18
2022-12-24T16:37:24.658Z,6.80
2022-12-24T16:39:57.060Z,5.30
2022-12-24T16:42:58.405Z,6.90
2022-12-24T16:45:34.199Z,6.95
2022-12-24T16:48:04.046Z,6.47
2022-12-24T16:50:34.723Z,4.78
2022-12-24T16:53:05.634Z,7.78
2022-12-24T16:55:40.571Z,5.82
2022-12-24T16:58:08.909Z,7.85
2022-12-24T17:00:44.970Z,6.13
2022-12-24T17:03:34.978Z,4.80
2022-12-24T17:06:21.314Z,4.43
2022-12-24T17:08:52.229Z,5.40
2022-12-24T17:11:23.258Z,5.70
2022-12-24T17:13:51.827Z,5.32
2022-12-24T17:16:33.886Z,5.32
2022-12-24T17:19:05.370Z,5.70
2022-12-24T17:21:41.429Z,4.90
2022-12-24T17:24:22.311Z,5.18
2022-12-24T17:26:52.711Z,5.22
2022-12-24T17:29:35.941Z,7.05
2022-12-24T17:32:23.041Z,6.50
2022-12-24T17:35:02.409Z,6.60
2022-12-24T17:37:52.564Z,7.47
2022-12-24T17:40:37.398Z,8.25
2022-12-24T17:43:15.902Z,7.15
2022-12-24T17:46:00.650Z,7.07
2022-12-24T17:48:32.183Z,5.30
2022-12-24T17:51:07.698Z,7.22
2022-12-24T17:53:40.220Z,10.38
2022-12-24T17:56:15.442Z,8.93
2022-12-24T17:58:47.747Z,8.18
2022-12-24T18:01:21.992Z,8.38
2022-12-24T18:04:09.799Z,5.95
2022-12-24T18:06:49.516Z,6.82
2022-12-24T18:09:21.268Z,6.47
2022-12-24T18:11:52.902Z,9.85
2022-12-24T18:14:25.039Z,8.15
2022-12-24T18:16:56.407Z,8.43
2022-12-24T18:19:24.912Z,6.15
2022-12-24T18:21:54.777Z,7.28
2022-12-24T18:24:23.315Z,7.80
2022-12-24T18:26:52.657Z,7.57
2022-12-24T18:29:21.279Z,6.57
2022-12-24T18:31:51.697Z,6.80
2022-12-24T18:34:22.689Z,5.75
2022-12-24T18:36:55.692Z,7.00
2022-12-24T18:39:24.449Z,5.78
2022-12-24T18:41:53.597Z,6.10
2022-12-24T18:44:25.687Z,5.05
2022-12-24T18:46:54.814Z,6.25
2022-12-24T18:49:23.308Z,9.20
2022-12-24T18:51:52.211Z,9.77
2022-12-24T18:54:23.011Z,5.85
2022-12-24T18:57:11.578Z,6.50
2022-12-24T18:59:40.536Z,5.20
2022-12-24T19:02:22.013Z,5.90
2022-12-24T19:04:50.655Z,5.75
2022-12-24T19:07:20.045Z,6.40
2022-12-24T19:09:49.027Z,6.07
2022-12-24T19:12:21.023Z,6.10
2022-12-24T19:14:52.157Z,5.97
2022-12-24T19:17:21.728Z,6.47
2022-12-24T19:19:51.654Z,5.97
2022-12-24T19:22:21.746Z,5.80
2022-12-24T19:24:53.141Z,6.70
2022-12-24T19:27:24.002Z,6.88
2022-12-24T19:29:55.308Z,7.80
2022-12-24T19:32:24.127Z,8.80
2022-12-24T19:34:52.792Z,5.97
2022-12-24T19:37:21.496Z,7.35
2022-12-24T19:39:59.734Z,7.32
2022-12-24T19:42:42.791Z,7.85
2022-12-24T19:45:21.372Z,7.80
2022-12-24T19:48:00.078Z,7.85
2022-12-24T19:50:29.936Z,7.90
2022-12-24T19:53:01.672Z,9.65
2022-12-24T19:55:30.237Z,16.10
2022-12-24T19:58:02.871Z,23.27
2022-12-24T20:00:36.526Z,7.80
2022-12-24T20:03:20.961Z,7.40
2022-12-24T20:05:50.212Z,8.32
2022-12-24T20:08:19.607Z,8.35
2022-12-24T20:11:11.171Z,8.00
2022-12-24T20:13:56.619Z,8.70
2022-12-24T20:16:32.113Z,8.95
2022-12-24T20:19:14.686Z,9.70
2022-12-24T20:21:57.738Z,10.38
2022-12-24T20:24:34.556Z,12.00
2022-12-24T20:27:11.831Z,8.00
2022-12-24T20:29:48.190Z,8.70
2022-12-24T20:32:29.589Z,7.60
2022-12-24T20:35:04.639Z,7.57
2022-12-24T20:37:42.181Z,11.60
2022-12-24T20:40:20.787Z,8.80
2022-12-24T20:42:50.596Z,8.25
2022-12-24T20:45:19.595Z,8.43
2022-12-24T20:47:53.000Z,8.23
2022-12-24T20:50:25.004Z,7.85
2022-12-24T20:52:54.138Z,8.50
2022-12-24T20:55:31.282Z,8.52
2022-12-24T20:58:01.912Z,7.20
2022-12-24T21:00:35.571Z,7.80
2022-12-24T21:03:23.265Z,8.48
2022-12-24T21:05:51.925Z,8.48
2022-12-24T21:08:20.851Z,6.50
2022-12-24T21:11:12.050Z,7.03
2022-12-24T21:13:39.753Z,8.75
2022-12-24T21:16:11.429Z,7.80
2022-12-24T21:18:39.907Z,7.38
2022-12-24T21:21:10.903Z,8.55
2022-12-24T21:23:40.343Z,7.90
2022-12-24T21:26:09.427Z,7.32
2022-12-24T21:28:44.885Z,8.35
2022-12-24T21:31:21.026Z,7.80
2022-12-24T21:34:11.229Z,6.15
2022-12-24T21:36:43.269Z,7.50
2022-12-24T21:39:12.413Z,7.43
2022-12-24T21:41:41.212Z,6.60
2022-12-24T21:44:12.060Z,7.25
2022-12-24T21:46:41.746Z,8.27
2022-12-24T21:49:28.631Z,8.27
2022-12-24T21:51:59.890Z,8.15
2022-12-24T21:54:30.501Z,7.45
2022-12-24T21:57:22.341Z,7.90
2022-12-24T21:59:51.889Z,9.18
2022-12-24T22:02:20.829Z,6.97
2022-12-24T22:04:49.500Z,8.25
2022-12-24T22:07:46.383Z,7.82
2022-12-24T22:10:33.769Z,7.13
2022-12-24T22:13:06.059Z,6.93
2022-12-24T22:15:35.216Z,7.45
2022-12-24T22:18:03.879Z,6.65
2022-12-24T22:20:37.679Z,5.78
2022-12-24T22:23:13.799Z,6.65
2022-12-24T22:25:45.515Z,6.28
2022-12-24T22:28:29.162Z,7.18
2022-12-24T22:30:58.015Z,6.50
2022-12-24T22:33:41.766Z,6.05
2022-12-24T22:36:10.429Z,7.63
2022-12-24T22:38:43.694Z,6.22
2022-12-24T22:41:13.570Z,5.35
2022-12-24T22:43:45.584Z,6.07
2022-12-24T22:46:14.643Z,6.57
2022-12-24T22:48:48.428Z,6.15
2022-12-24T22:51:27.719Z,5.35
2022-12-24T22:54:03.056Z,5.68
2022-12-24T22:56:41.588Z,4.97
2022-12-24T22:59:20.615Z,5.57
2022-12-24T23:01:56.349Z,6.80
2022-12-24T23:04:24.979Z,4.38
2022-12-24T23:06:53.840Z,7.50
2022-12-24T23:09:24.624Z,4.00
2022-12-24T23:12:07.558Z,5.63
2022-12-24T23:14:53.954Z,6.00
2022-12-24T23:17:40.751Z,4.75
2022-12-24T23:20:17.146Z,4.30
2022-12-24T23:22:49.174Z,6.10
2022-12-24T23:25:17.830Z,4.10
2022-12-24T23:28:00.463Z,4.93
2022-12-24T23:30:35.122Z,4.03
2022-12-24T23:33:22.708Z,4.60
2022-12-24T23:35:56.578Z,4.05
2022-12-24T23:38:35.889Z,5.20
2022-12-24T23:41:14.066Z,5.40
2022-12-24T23:43:47.322Z,4.10
2022-12-24T23:46:20.341Z,4.53
2022-12-24T23:48:57.495Z,4.85
2022-12-24T23:51:30.551Z,4.30
2022-12-24T23:54:02.537Z,4.18
2022-12-24T23:56:37.965Z,4.90
2022-12-24T23:59:11.530Z,4.53
